Time;durP1;ratioP1;P1;durP2;ratioP2;P2;SDS_P1;SDS_P2;PMS_P1;PMS_P2;Temp;Humidity;BMP_temperature;BMP_pressure;BME280_temperature;BME280_humidity;BME280_pressure;Samples;Min_cycle;Max_cycle;Signal;HPM_P1;HPM_P2
2022/05/04 00:00:01;;;;;;;2.70;2.60;;;;;;;;;;4952536;29;20682;-62
2022/05/04 00:02:28;;;;;;;2.60;2.50;;;;;;;;;;4937724;29;20203;-62
2022/05/04 00:04:55;;;;;;;2.35;2.25;;;;;;;;;;4951297;29;20231;-62
2022/05/04 00:07:22;;;;;;;2.37;2.27;;;;;;;;;;4951419;28;20207;-62
2022/05/04 00:09:49;;;;;;;2.90;2.70;;;;;;;;;;4957525;28;20327;-62
2022/05/04 00:12:16;;;;;;;3.53;2.50;;;;;;;;;;4955804;28;20696;-62
2022/05/04 00:14:43;;;;;;;2.67;2.58;;;;;;;;;;4964069;28;20877;-62
2022/05/04 00:17:12;;;;;;;2.47;2.38;;;;;;;;;;4964636;28;20211;-62
2022/05/04 00:19:39;;;;;;;3.63;2.30;;;;;;;;;;4952461;28;20207;-62
2022/05/04 00:22:06;;;;;;;2.73;2.63;;;;;;;;;;4962998;28;20207;-62
2022/05/04 00:24:33;;;;;;;2.20;2.10;;;;;;;;;;4957912;28;20564;-62
2022/05/04 00:27:00;;;;;;;2.00;1.90;;;;;;;;;;4952156;28;20215;-62
2022/05/04 00:29:27;;;;;;;2.35;2.25;;;;;;;;;;4957807;28;20448;-62
2022/05/04 00:31:54;;;;;;;2.47;2.38;;;;;;;;;;4951638;28;20681;-62
2022/05/04 00:34:23;;;;;;;3.53;2.30;;;;;;;;;;4955688;28;20207;-62
2022/05/04 00:36:50;;;;;;;2.20;2.10;;;;;;;;;;4951287;28;20207;-62
2022/05/04 00:39:17;;;;;;;1.73;1.73;;;;;;;;;;4958738;28;20572;-62
2022/05/04 00:41:44;;;;;;;2.72;2.50;;;;;;;;;;4953791;28;20704;-62
2022/05/04 00:44:11;;;;;;;2.08;1.90;;;;;;;;;;4955959;28;20230;-62
2022/05/04 00:46:38;;;;;;;3.40;2.40;;;;;;;;;;4969040;28;20206;-62
2022/05/04 00:49:05;;;;;;;2.58;2.47;;;;;;;;;;4960024;28;20218;-62
2022/05/04 00:51:34;;;;;;;2.23;2.20;;;;;;;;;;4963054;28;20217;-62
2022/05/04 00:54:01;;;;;;;2.10;2.05;;;;;;;;;;4959839;28;20213;-62
2022/05/04 00:56:29;;;;;;;3.03;2.83;;;;;;;;;;4968246;28;20234;-62
2022/05/04 00:58:55;;;;;;;2.67;2.55;;;;;;;;;;4955121;28;20585;-62
2022/05/04 01:01:22;;;;;;;2.67;2.42;;;;;;;;;;4968051;28;20226;-62
2022/05/04 01:03:49;;;;;;;3.60;2.57;;;;;;;;;;4958816;28;20791;-62
2022/05/04 01:06:16;;;;;;;2.50;2.40;;;;;;;;;;4969700;28;20318;-62
2022/05/04 01:08:45;;;;;;;2.22;2.03;;;;;;;;;;4955706;28;20309;-61
2022/05/04 01:11:12;;;;;;;2.40;2.30;;;;;;;;;;4949693;29;20226;-61
2022/05/04 01:13:39;;;;;;;2.50;2.40;;;;;;;;;;4950325;29;20590;-62
2022/05/04 01:16:06;;;;;;;2.47;2.30;;;;;;;;;;4950383;28;20207;-61
2022/05/04 01:18:33;;;;;;;2.00;1.90;;;;;;;;;;4950141;29;20221;-61
2022/05/04 01:21:00;;;;;;;2.40;2.30;;;;;;;;;;4951229;29;20219;-61
2022/05/04 01:23:29;;;;;;;3.53;2.25;;;;;;;;;;4950348;29;20203;-61
2022/05/04 01:25:57;;;;;;;2.10;2.00;;;;;;;;;;4935053;29;20211;-60
2022/05/04 01:28:24;;;;;;;2.20;2.17;;;;;;;;;;4950303;29;20207;-61
2022/05/04 01:30:51;;;;;;;2.40;2.30;;;;;;;;;;4951287;29;20243;-61
2022/05/04 01:33:18;;;;;;;2.17;2.10;;;;;;;;;;4950628;29;20211;-62
2022/05/04 01:35:45;;;;;;;2.67;2.33;;;;;;;;;;4951508;28;20222;-61
2022/05/04 01:38:12;;;;;;;2.33;2.23;;;;;;;;;;4950194;29;20711;-61
2022/05/04 01:40:41;;;;;;;2.17;2.07;;;;;;;;;;4950649;29;20226;-61
2022/05/04 01:43:08;;;;;;;2.10;2.00;;;;;;;;;;4948728;28;20200;-61
2022/05/04 01:45:35;;;;;;;2.33;2.23;;;;;;;;;;4951054;29;20239;-61
2022/05/04 01:48:02;;;;;;;2.73;2.40;;;;;;;;;;4950704;28;20564;-61
2022/05/04 01:50:29;;;;;;;2.07;1.97;;;;;;;;;;4949125;29;20233;-62
2022/05/04 01:52:56;;;;;;;2.93;2.73;;;;;;;;;;4948362;28;20211;-62
2022/05/04 01:55:23;;;;;;;2.27;2.17;;;;;;;;;;4949987;28;20719;-62
2022/05/04 01:57:51;;;;;;;2.00;1.90;;;;;;;;;;4950695;29;20211;-61
2022/05/04 02:00:19;;;;;;;2.17;2.03;;;;;;;;;;4949169;29;20237;-62
2022/05/04 02:02:46;;;;;;;3.80;2.40;;;;;;;;;;4948607;29;20230;-61
2022/05/04 02:05:13;;;;;;;2.80;2.57;;;;;;;;;;4949239;28;20227;-61
2022/05/04 02:07:41;;;;;;;2.23;2.03;;;;;;;;;;4948286;29;20595;-61
2022/05/04 02:10:08;;;;;;;2.00;2.00;;;;;;;;;;4945593;29;20251;-61
2022/05/04 02:12:35;;;;;;;1.90;1.90;;;;;;;;;;4947353;28;20231;-61
2022/05/04 02:15:04;;;;;;;1.90;1.80;;;;;;;;;;4945136;28;20686;-61
2022/05/04 02:17:31;;;;;;;2.50;2.40;;;;;;;;;;4947083;29;20215;-61
2022/05/04 02:19:58;;;;;;;2.47;2.10;;;;;;;;;;4947337;29;20217;-61
2022/05/04 02:22:25;;;;;;;2.60;2.40;;;;;;;;;;4946973;29;20617;-61
2022/05/04 02:24:52;;;;;;;1.83;1.83;;;;;;;;;;4947800;28;20230;-61
2022/05/04 02:27:19;;;;;;;2.17;1.97;;;;;;;;;;4948258;29;20210;-61
2022/05/04 02:29:46;;;;;;;2.30;2.23;;;;;;;;;;4949515;29;20725;-61
2022/05/04 02:32:14;;;;;;;2.03;2.03;;;;;;;;;;4947072;29;20710;-61
2022/05/04 02:40:08;;;;;;;2.27;2.17;;;;;;;;;;4949323;29;20354;-61
2022/05/04 02:42:36;;;;;;;2.17;2.07;;;;;;;;;;4949659;29;20207;-61
2022/05/04 02:45:03;;;;;;;2.20;2.10;;;;;;;;;;4948744;29;20227;-61
2022/05/04 02:47:32;;;;;;;1.80;1.80;;;;;;;;;;4948523;28;20274;-61
2022/05/04 02:49:59;;;;;;;2.67;1.97;;;;;;;;;;4946480;29;20215;-61
2022/05/04 02:52:26;;;;;;;2.10;2.10;;;;;;;;;;4947295;29;20207;-61
2022/05/04 02:54:53;;;;;;;2.40;2.30;;;;;;;;;;4947400;29;20203;-61
2022/05/04 02:57:20;;;;;;;2.40;2.30;;;;;;;;;;4945468;29;20624;-61
2022/05/04 02:59:47;;;;;;;1.73;1.70;;;;;;;;;;4947648;29;20210;-61
2022/05/04 03:02:29;;;;;;;2.00;2.00;;;;;;;;;;4947178;29;20207;-61
2022/05/04 03:04:59;;;;;;;3.50;2.10;;;;;;;;;;4946417;28;20740;-61
2022/05/04 03:07:27;;;;;;;1.97;1.87;;;;;;;;;;4947408;28;20233;-61
2022/05/04 03:09:54;;;;;;;1.70;1.70;;;;;;;;;;4951299;28;20358;-61
2022/05/04 03:12:21;;;;;;;2.33;2.23;;;;;;;;;;4951415;28;20235;-61
2022/05/04 03:14:48;;;;;;;2.20;2.10;;;;;;;;;;4958110;28;20198;-61
2022/05/04 03:17:15;;;;;;;1.92;1.90;;;;;;;;;;4955496;28;20214;-62
2022/05/04 03:19:43;;;;;;;1.90;1.90;;;;;;;;;;4963582;28;20237;-61
2022/05/04 03:22:11;;;;;;;2.17;2.07;;;;;;;;;;4962907;28;20669;-61
2022/05/04 03:24:39;;;;;;;1.80;1.80;;;;;;;;;;4964049;28;20222;-61
2022/05/04 03:27:07;;;;;;;2.23;2.07;;;;;;;;;;4956378;28;20326;-61
2022/05/04 03:29:34;;;;;;;1.83;1.77;;;;;;;;;;4962931;28;20210;-61
2022/05/04 03:32:01;;;;;;;2.15;2.10;;;;;;;;;;4957949;28;20211;-61
2022/05/04 03:34:28;;;;;;;2.00;1.97;;;;;;;;;;4963119;28;20214;-61
2022/05/04 03:36:57;;;;;;;2.00;1.90;;;;;;;;;;4956018;28;20213;-61
2022/05/04 03:39:26;;;;;;;2.27;2.17;;;;;;;;;;4952799;28;20217;-61
2022/05/04 03:41:53;;;;;;;2.17;2.07;;;;;;;;;;4958727;28;20210;-61
2022/05/04 03:44:20;;;;;;;2.30;2.20;;;;;;;;;;4955240;28;20614;-61
2022/05/04 03:46:47;;;;;;;2.30;2.20;;;;;;;;;;4959221;28;20294;-61
2022/05/04 03:49:17;;;;;;;2.40;2.30;;;;;;;;;;4964467;28;20211;-61
2022/05/04 03:51:44;;;;;;;2.37;2.27;;;;;;;;;;4955453;28;20234;-61
2022/05/04 03:54:11;;;;;;;2.37;2.27;;;;;;;;;;4949710;28;20214;-61
2022/05/04 03:56:40;;;;;;;2.63;2.37;;;;;;;;;;4959151;28;20207;-61
2022/05/04 03:59:07;;;;;;;2.33;2.23;;;;;;;;;;4948842;28;20673;-61
2022/05/04 04:01:34;;;;;;;1.80;1.80;;;;;;;;;;4952798;28;20203;-61
2022/05/04 04:04:02;;;;;;;2.47;2.37;;;;;;;;;;4962956;28;20645;-61
2022/05/04 04:06:30;;;;;;;3.10;2.90;;;;;;;;;;4962984;28;20243;-61
2022/05/04 04:08:57;;;;;;;3.13;3.03;;;;;;;;;;4951404;28;20800;-60
2022/05/04 04:11:24;;;;;;;3.90;3.60;;;;;;;;;;4950346;29;20203;-61
2022/05/04 04:13:52;;;;;;;3.87;3.63;;;;;;;;;;4951511;28;20211;-61
2022/05/04 04:16:20;;;;;;;4.37;4.00;;;;;;;;;;4950386;29;20210;-61
2022/05/04 04:18:47;;;;;;;4.30;3.90;;;;;;;;;;4950680;29;20214;-61
2022/05/04 04:23:59;;;;;;;3.43;3.20;;;;;;;;;;4949925;29;20214;-61
2022/05/04 04:26:26;;;;;;;5.23;4.03;;;;;;;;;;4950589;29;20265;-61
2022/05/04 04:28:54;;;;;;;3.87;3.57;;;;;;;;;;4949799;29;20219;-61
2022/05/04 04:31:21;;;;;;;3.33;3.10;;;;;;;;;;4950128;29;20206;-61
2022/05/04 04:33:48;;;;;;;6.20;3.27;;;;;;;;;;4950672;29;20290;-61
2022/05/04 04:36:15;;;;;;;3.20;3.10;;;;;;;;;;4950578;28;20288;-61
2022/05/04 04:38:42;;;;;;;3.03;2.83;;;;;;;;;;4950122;28;20555;-62
2022/05/04 04:41:09;;;;;;;3.37;3.17;;;;;;;;;;4950784;29;20214;-63
2022/05/04 04:43:36;;;;;;;6.07;3.47;;;;;;;;;;4951139;29;20215;-62
2022/05/04 04:46:05;;;;;;;3.23;3.03;;;;;;;;;;4950237;29;20227;-61
2022/05/04 04:48:32;;;;;;;3.60;3.40;;;;;;;;;;4951300;28;20207;-62
2022/05/04 04:50:59;;;;;;;3.83;3.50;;;;;;;;;;4949590;28;20212;-62
2022/05/04 04:53:26;;;;;;;3.87;3.53;;;;;;;;;;4949573;28;20214;-62
2022/05/04 04:55:53;;;;;;;4.67;3.60;;;;;;;;;;4949893;28;20200;-62
2022/05/04 04:58:20;;;;;;;2.73;2.63;;;;;;;;;;4948967;29;20207;-62
2022/05/04 05:00:47;;;;;;;2.70;2.60;;;;;;;;;;4948631;29;20211;-62
2022/05/04 05:03:15;;;;;;;2.97;2.77;;;;;;;;;;4951416;28;20214;-61
2022/05/04 05:05:43;;;;;;;3.40;3.20;;;;;;;;;;4951068;29;20237;-63
2022/05/04 05:08:11;;;;;;;3.27;2.97;;;;;;;;;;4950963;29;20215;-63
2022/05/04 05:10:38;;;;;;;3.17;2.90;;;;;;;;;;4947221;29;20242;-62
2022/05/04 05:13:06;;;;;;;3.43;3.23;;;;;;;;;;4947015;29;20221;-62
2022/05/04 05:18:21;;;;;;;3.90;3.60;;;;;;;;;;4951583;29;20261;-62
2022/05/04 05:20:48;;;;;;;4.07;3.30;;;;;;;;;;4949703;29;20315;-62
2022/05/04 05:23:15;;;;;;;3.53;3.27;;;;;;;;;;4948436;29;20215;-61
2022/05/04 05:25:42;;;;;;;3.30;3.10;;;;;;;;;;4950491;29;20234;-62
2022/05/04 05:28:09;;;;;;;3.33;3.10;;;;;;;;;;4951154;29;20215;-62
2022/05/04 05:30:36;;;;;;;3.33;3.13;;;;;;;;;;4951293;29;20219;-62
2022/05/04 05:33:03;;;;;;;2.87;2.67;;;;;;;;;;4950984;29;20214;-62
2022/05/04 05:35:31;;;;;;;3.70;3.50;;;;;;;;;;4950763;29;20685;-60
2022/05/04 05:37:58;;;;;;;4.13;3.73;;;;;;;;;;4949582;28;20883;-61
2022/05/04 05:40:26;;;;;;;3.70;3.42;;;;;;;;;;4950297;29;20929;-61
2022/05/04 05:42:53;;;;;;;2.73;2.53;;;;;;;;;;4950990;29;20623;-60
2022/05/04 05:45:21;;;;;;;3.42;3.33;;;;;;;;;;4950706;29;20977;-60
2022/05/04 05:47:48;;;;;;;2.93;2.83;;;;;;;;;;4950179;29;20211;-61
2022/05/04 05:50:17;;;;;;;4.50;3.63;;;;;;;;;;4950419;29;20215;-61
2022/05/04 05:52:45;;;;;;;3.63;3.40;;;;;;;;;;4949395;29;20218;-61
2022/05/04 05:55:12;;;;;;;4.60;3.45;;;;;;;;;;4950111;28;20203;-61
2022/05/04 05:57:40;;;;;;;3.90;3.67;;;;;;;;;;4949638;28;20221;-61
2022/05/04 06:00:08;;;;;;;3.90;3.60;;;;;;;;;;4949748;29;20199;-61
2022/05/04 06:02:35;;;;;;;4.00;3.72;;;;;;;;;;4949715;28;20294;-61
2022/05/04 06:05:02;;;;;;;8.13;3.90;;;;;;;;;;4945832;29;20754;-62
2022/05/04 06:07:29;;;;;;;5.13;4.30;;;;;;;;;;4944649;29;20294;-61
2022/05/04 06:09:57;;;;;;;3.60;3.40;;;;;;;;;;4941579;29;20239;-61
2022/05/04 06:12:24;;;;;;;5.03;4.13;;;;;;;;;;4942732;29;20215;-62
2022/05/04 06:14:51;;;;;;;4.45;3.72;;;;;;;;;;4949170;29;20231;-62
2022/05/04 06:17:19;;;;;;;3.78;3.47;;;;;;;;;;4946371;29;20217;-61
2022/05/04 06:19:47;;;;;;;5.20;3.63;;;;;;;;;;4944230;29;20234;-62
2022/05/04 06:22:14;;;;;;;5.25;3.72;;;;;;;;;;4942346;28;20214;-61
2022/05/04 06:24:41;;;;;;;3.50;3.30;;;;;;;;;;4942642;29;20217;-62
2022/05/04 06:27:09;;;;;;;3.78;3.42;;;;;;;;;;4949140;29;20640;-62
2022/05/04 06:35:15;;;;;;;5.38;3.65;;;;;;;;;;4852937;29;20810;-61
2022/05/04 06:37:42;;;;;;;4.03;3.72;;;;;;;;;;4921474;29;20218;-61
2022/05/04 06:40:09;;;;;;;4.15;3.75;;;;;;;;;;4945395;28;20203;-61
2022/05/04 06:42:39;;;;;;;5.03;3.75;;;;;;;;;;4949497;28;20214;-62
2022/05/04 06:45:07;;;;;;;4.32;3.92;;;;;;;;;;4949718;29;20203;-62
2022/05/04 06:47:34;;;;;;;4.07;3.67;;;;;;;;;;4949667;29;20203;-63
2022/05/04 06:50:03;;;;;;;3.97;3.72;;;;;;;;;;4948475;29;21907;-62
2022/05/04 06:52:31;;;;;;;4.40;3.42;;;;;;;;;;4949495;29;20226;-61
2022/05/04 06:54:58;;;;;;;3.83;3.63;;;;;;;;;;4949378;29;20292;-62
2022/05/04 06:57:25;;;;;;;3.67;3.47;;;;;;;;;;4949153;29;20210;-61
2022/05/04 06:59:54;;;;;;;3.50;3.30;;;;;;;;;;4946188;29;20219;-63
2022/05/04 07:02:21;;;;;;;3.92;3.60;;;;;;;;;;4939644;29;20261;-61
2022/05/04 07:04:48;;;;;;;3.67;3.38;;;;;;;;;;4949640;28;20207;-61
2022/05/04 07:07:15;;;;;;;4.18;3.78;;;;;;;;;;4948643;29;20241;-61
2022/05/04 07:09:42;;;;;;;4.32;3.42;;;;;;;;;;4949240;28;20685;-61
2022/05/04 07:12:09;;;;;;;4.22;3.92;;;;;;;;;;4948778;29;20214;-63
2022/05/04 07:14:37;;;;;;;3.65;3.45;;;;;;;;;;4950051;29;21292;-62
2022/05/04 07:17:05;;;;;;;3.80;3.50;;;;;;;;;;4949115;29;20295;-63
2022/05/04 07:19:32;;;;;;;4.35;3.55;;;;;;;;;;4949280;29;20218;-65
2022/05/04 07:21:59;;;;;;;3.85;3.65;;;;;;;;;;4948670;29;20609;-65
2022/05/04 07:24:26;;;;;;;3.60;3.40;;;;;;;;;;4949667;29;20700;-65
2022/05/04 07:26:53;;;;;;;2.95;2.78;;;;;;;;;;4948481;28;20231;-64
2022/05/04 07:29:20;;;;;;;3.30;3.17;;;;;;;;;;4948895;29;20266;-66
2022/05/04 07:31:47;;;;;;;2.97;2.78;;;;;;;;;;4949271;29;20215;-65
2022/05/04 07:34:17;;;;;;;3.72;3.40;;;;;;;;;;4942150;28;20214;-65
2022/05/04 07:36:44;;;;;;;3.53;3.35;;;;;;;;;;4947874;29;20294;-64
2022/05/04 07:42:21;;;;;;;3.45;3.30;;;;;;;;;;4942821;29;20218;-66
2022/05/04 07:44:47;;;;;;;3.30;3.17;;;;;;;;;;4950612;29;20225;-65
2022/05/04 07:47:14;;;;;;;3.53;3.33;;;;;;;;;;4952469;29;20223;-66
2022/05/04 07:49:42;;;;;;;3.75;3.45;;;;;;;;;;4948695;29;20219;-66
2022/05/04 07:52:09;;;;;;;3.13;2.92;;;;;;;;;;4952160;28;20207;-64
2022/05/04 07:54:36;;;;;;;4.32;3.35;;;;;;;;;;4953037;29;20670;-64
2022/05/04 07:57:08;;;;;;;4.13;3.88;;;;;;;;;;4950498;29;20269;-67
2022/05/04 07:59:35;;;;;;;3.28;3.08;;;;;;;;;;4952854;29;20223;-65
2022/05/04 08:04:58;;;;;;;3.40;3.20;;;;;;;;;;4952796;29;20371;-65
2022/05/04 08:07:25;;;;;;;4.40;4.10;;;;;;;;;;4952121;29;20241;-65
2022/05/04 08:09:52;;;;;;;4.57;4.28;;;;;;;;;;4953005;28;20239;-65
2022/05/04 08:12:19;;;;;;;5.13;4.55;;;;;;;;;;4947387;28;20212;-65
2022/05/04 08:14:46;;;;;;;4.53;4.22;;;;;;;;;;4945390;28;20219;-65
2022/05/04 08:17:13;;;;;;;4.10;3.85;;;;;;;;;;4950098;28;20203;-65
2022/05/04 08:19:40;;;;;;;4.68;4.28;;;;;;;;;;4971377;28;20210;-65
2022/05/04 08:22:12;;;;;;;4.60;4.20;;;;;;;;;;4965586;28;20210;-65
2022/05/04 08:24:39;;;;;;;4.75;4.32;;;;;;;;;;4971500;28;20288;-65
2022/05/04 08:27:06;;;;;;;5.07;4.32;;;;;;;;;;4953060;28;20238;-66
2022/05/04 08:29:33;;;;;;;4.72;4.38;;;;;;;;;;4952189;29;20203;-65
2022/05/04 08:32:01;;;;;;;4.05;3.72;;;;;;;;;;4952297;29;20243;-65
2022/05/04 08:34:28;;;;;;;6.38;4.50;;;;;;;;;;4964086;28;20206;-66
2022/05/04 08:36:55;;;;;;;4.57;4.22;;;;;;;;;;4961943;28;20254;-65
2022/05/04 08:39:23;;;;;;;5.93;4.70;;;;;;;;;;4953214;28;20211;-65
2022/05/04 08:41:52;;;;;;;5.20;4.70;;;;;;;;;;4959172;28;20680;-65
2022/05/04 08:44:20;;;;;;;5.00;4.60;;;;;;;;;;4965290;28;20245;-65
2022/05/04 08:46:47;;;;;;;4.72;4.32;;;;;;;;;;4945737;28;20238;-65
2022/05/04 08:49:16;;;;;;;4.55;4.25;;;;;;;;;;4961906;28;20210;-65
2022/05/04 08:51:43;;;;;;;4.32;4.00;;;;;;;;;;4964261;28;20207;-65
2022/05/04 08:54:11;;;;;;;4.50;4.15;;;;;;;;;;4965079;28;20206;-65
2022/05/04 08:56:39;;;;;;;4.80;4.40;;;;;;;;;;4957144;28;20308;-66
2022/05/04 08:59:07;;;;;;;4.75;4.43;;;;;;;;;;4952702;28;20278;-66
2022/05/04 09:01:34;;;;;;;4.82;4.43;;;;;;;;;;4951262;29;20595;-65
2022/05/04 09:04:01;;;;;;;4.78;4.38;;;;;;;;;;4951789;28;20207;-65
2022/05/04 09:06:29;;;;;;;4.05;3.80;;;;;;;;;;4956588;28;20612;-65
2022/05/04 09:08:57;;;;;;;4.10;3.90;;;;;;;;;;4963610;28;20237;-65
2022/05/04 09:11:26;;;;;;;4.32;3.97;;;;;;;;;;4953667;28;20254;-65
2022/05/04 09:13:54;;;;;;;6.38;4.18;;;;;;;;;;4970589;28;20212;-65
2022/05/04 09:16:29;;;;;;;4.25;3.95;;;;;;;;;;4952615;28;20230;-65
2022/05/04 09:18:56;;;;;;;6.05;3.80;;;;;;;;;;4952053;28;20210;-66
2022/05/04 09:21:23;;;;;;;4.80;4.40;;;;;;;;;;4951371;28;20203;-65
2022/05/04 09:23:53;;;;;;;4.97;4.57;;;;;;;;;;4951161;29;20214;-65
2022/05/04 09:26:20;;;;;;;4.32;4.00;;;;;;;;;;4952351;28;20313;-65
2022/05/04 09:28:50;;;;;;;4.22;3.92;;;;;;;;;;4954355;28;20992;-65
2022/05/04 09:31:18;;;;;;;4.22;4.03;;;;;;;;;;4960682;28;20741;-65
2022/05/04 09:33:53;;;;;;;4.85;4.50;;;;;;;;;;4950245;29;20314;-65
2022/05/04 09:36:30;;;;;;;4.72;3.72;;;;;;;;;;4948765;28;20744;-65
2022/05/04 09:47:19;;;;;;;3.90;3.60;;;;;;;;;;4944978;28;20237;-66
2022/05/04 09:49:48;;;;;;;4.80;4.18;;;;;;;;;;4951039;28;20234;-65
2022/05/04 09:52:16;;;;;;;4.68;4.28;;;;;;;;;;4950250;29;20207;-66
2022/05/04 09:54:43;;;;;;;4.45;4.10;;;;;;;;;;4964234;28;20241;-65
2022/05/04 09:57:10;;;;;;;5.28;4.78;;;;;;;;;;4968397;28;20214;-66
2022/05/04 09:59:37;;;;;;;4.82;4.43;;;;;;;;;;4950254;29;20615;-66
2022/05/04 10:02:07;;;;;;;4.85;4.40;;;;;;;;;;4950196;29;20222;-66
2022/05/04 10:04:36;;;;;;;5.50;5.00;;;;;;;;;;4949671;29;20213;-66
2022/05/04 10:07:04;;;;;;;5.43;4.93;;;;;;;;;;4949098;28;20678;-65
2022/05/04 10:09:32;;;;;;;5.15;4.05;;;;;;;;;;4948725;29;20246;-66
2022/05/04 10:12:00;;;;;;;5.43;5.03;;;;;;;;;;4949038;29;20236;-65
2022/05/04 10:14:28;;;;;;;5.65;4.30;;;;;;;;;;4948986;29;20226;-66
2022/05/04 10:16:59;;;;;;;4.57;4.18;;;;;;;;;;4948383;29;20570;-65
2022/05/04 10:19:29;;;;;;;4.85;4.45;;;;;;;;;;4948058;28;20214;-66
2022/05/04 10:21:58;;;;;;;5.40;5.10;;;;;;;;;;4946321;28;20215;-66
2022/05/04 10:24:27;;;;;;;4.50;4.20;;;;;;;;;;4944449;29;20286;-66
2022/05/04 10:27:01;;;;;;;4.93;4.47;;;;;;;;;;4946057;29;20231;-66
2022/05/04 10:32:10;;;;;;;4.95;4.55;;;;;;;;;;4919154;29;20930;-66
2022/05/04 10:34:42;;;;;;;5.03;4.70;;;;;;;;;;4949682;29;20595;-65
2022/05/04 10:37:10;;;;;;;6.68;4.32;;;;;;;;;;4948680;29;20380;-66
2022/05/04 10:39:37;;;;;;;6.63;4.18;;;;;;;;;;4949307;28;20241;-65
2022/05/04 10:42:04;;;;;;;4.45;4.22;;;;;;;;;;4949006;28;20211;-65
2022/05/04 10:44:52;;;;;;;4.70;4.30;;;;;;;;;;4948718;28;20211;-66
2022/05/04 10:47:19;;;;;;;4.72;4.43;;;;;;;;;;4947454;29;20223;-65
2022/05/04 10:49:46;;;;;;;5.63;5.13;;;;;;;;;;4946155;28;20210;-65
2022/05/04 10:52:14;;;;;;;6.28;5.78;;;;;;;;;;4948838;29;20357;-65
2022/05/04 10:54:48;;;;;;;8.45;4.90;;;;;;;;;;4949569;29;20222;-65
2022/05/04 10:57:15;;;;;;;5.75;5.25;;;;;;;;;;4931372;29;20683;-65
2022/05/04 10:59:42;;;;;;;5.57;5.18;;;;;;;;;;4949065;29;20231;-65
2022/05/04 11:02:12;;;;;;;4.97;4.68;;;;;;;;;;4949540;29;20215;-65
2022/05/04 11:04:41;;;;;;;5.57;5.18;;;;;;;;;;4949202;29;20207;-66
2022/05/04 11:07:08;;;;;;;4.95;4.55;;;;;;;;;;4949248;29;20636;-66
2022/05/04 11:09:39;;;;;;;5.68;5.30;;;;;;;;;;4949247;28;20625;-65
2022/05/04 11:12:07;;;;;;;4.88;4.57;;;;;;;;;;4951873;28;20289;-66
2022/05/04 11:14:34;;;;;;;4.32;4.03;;;;;;;;;;4953771;29;20222;-62
2022/05/04 11:17:02;;;;;;;4.90;4.47;;;;;;;;;;4958288;28;20234;-64
2022/05/04 11:19:30;;;;;;;5.45;4.70;;;;;;;;;;4953770;28;20208;-64
2022/05/04 11:21:58;;;;;;;4.50;4.07;;;;;;;;;;4954667;28;20813;-64
2022/05/04 11:24:26;;;;;;;4.68;4.45;;;;;;;;;;4953083;29;20218;-63
2022/05/04 11:26:55;;;;;;;4.30;4.05;;;;;;;;;;4953248;28;20238;-66
2022/05/04 11:29:23;;;;;;;4.63;4.32;;;;;;;;;;4953253;29;20584;-61
2022/05/04 11:31:54;;;;;;;4.57;4.28;;;;;;;;;;4953374;29;20222;-63
2022/05/04 11:34:21;;;;;;;4.40;4.13;;;;;;;;;;4953531;29;20301;-61
2022/05/04 11:36:49;;;;;;;4.78;4.38;;;;;;;;;;4953058;29;20211;-62
2022/05/04 11:39:17;;;;;;;4.32;4.03;;;;;;;;;;4953794;29;20222;-59
2022/05/04 11:41:45;;;;;;;4.20;3.90;;;;;;;;;;4955903;28;20301;-61
2022/05/04 11:44:14;;;;;;;5.00;4.22;;;;;;;;;;4946351;29;20203;-60
2022/05/04 11:46:41;;;;;;;6.13;4.65;;;;;;;;;;4950724;29;20407;-62
2022/05/04 11:49:09;;;;;;;6.10;5.47;;;;;;;;;;4952739;29;20571;-62
2022/05/04 11:51:36;;;;;;;5.25;4.72;;;;;;;;;;4952578;28;20207;-62
2022/05/04 11:54:03;;;;;;;5.47;5.07;;;;;;;;;;4951657;29;20214;-62
2022/05/04 11:56:30;;;;;;;9.18;5.50;;;;;;;;;;4952416;28;20213;-63
2022/05/04 11:58:58;;;;;;;11.43;6.88;;;;;;;;;;4952339;29;20620;-62
2022/05/04 12:01:26;;;;;;;5.53;4.72;;;;;;;;;;4952972;29;20290;-65
2022/05/04 12:03:54;;;;;;;5.03;4.55;;;;;;;;;;4951142;29;20206;-62
2022/05/04 12:06:21;;;;;;;5.07;4.68;;;;;;;;;;4953042;28;20227;-62
2022/05/04 12:08:49;;;;;;;4.20;4.00;;;;;;;;;;4946322;28;20251;-64
2022/05/04 12:11:17;;;;;;;4.18;3.95;;;;;;;;;;4948354;29;20675;-62
2022/05/04 12:13:44;;;;;;;5.78;4.25;;;;;;;;;;4949317;29;20211;-63
2022/05/04 12:16:12;;;;;;;4.93;4.60;;;;;;;;;;4948230;29;20221;-61
2022/05/04 12:18:41;;;;;;;4.63;4.13;;;;;;;;;;4947283;28;20258;-61
2022/05/04 12:21:09;;;;;;;5.40;3.53;;;;;;;;;;4948174;28;20234;-60
2022/05/04 12:23:37;;;;;;;4.13;3.72;;;;;;;;;;4947530;28;20578;-60
2022/05/04 12:26:04;;;;;;;4.03;3.72;;;;;;;;;;4947876;29;20211;-60
2022/05/04 12:28:32;;;;;;;4.18;3.92;;;;;;;;;;4947916;29;20235;-60
2022/05/04 12:33:47;;;;;;;4.18;3.88;;;;;;;;;;4948464;29;20210;-60
2022/05/04 12:36:14;;;;;;;4.22;3.85;;;;;;;;;;4948989;29;20588;-64
2022/05/04 12:38:46;;;;;;;4.22;4.03;;;;;;;;;;4945907;29;20569;-62
2022/05/04 12:41:14;;;;;;;4.22;3.83;;;;;;;;;;4935888;29;20234;-68
2022/05/04 12:43:41;;;;;;;3.70;3.50;;;;;;;;;;4948279;29;20247;-62
2022/05/04 12:46:09;;;;;;;3.45;3.30;;;;;;;;;;4946417;28;20953;-64
2022/05/04 12:48:37;;;;;;;4.63;4.32;;;;;;;;;;4948601;29;20231;-62
2022/05/04 12:51:07;;;;;;;4.15;3.85;;;;;;;;;;4948408;28;20215;-62
2022/05/04 12:53:34;;;;;;;3.85;3.50;;;;;;;;;;4954469;28;20525;-62
2022/05/04 12:58:46;;;;;;;3.55;3.35;;;;;;;;;;4944375;28;20981;-61
2022/05/04 13:01:13;;;;;;;4.10;3.80;;;;;;;;;;4943426;28;20235;-63
2022/05/04 13:03:40;;;;;;;4.57;4.25;;;;;;;;;;4945699;28;20211;-60
2022/05/04 13:06:09;;;;;;;3.45;3.30;;;;;;;;;;4945847;28;20776;-62
2022/05/04 13:08:36;;;;;;;4.32;3.78;;;;;;;;;;4957106;28;20234;-64
2022/05/04 13:11:03;;;;;;;4.50;4.10;;;;;;;;;;4965714;28;20221;-63
2022/05/04 13:13:30;;;;;;;3.45;3.33;;;;;;;;;;4960822;28;20234;-61
2022/05/04 13:15:57;;;;;;;4.95;4.30;;;;;;;;;;4948067;28;20265;-61
2022/05/04 13:18:24;;;;;;;4.95;4.47;;;;;;;;;;4946674;29;20316;-61
2022/05/04 13:20:51;;;;;;;3.50;3.30;;;;;;;;;;4947771;28;20219;-61
2022/05/04 13:23:20;;;;;;;3.78;3.58;;;;;;;;;;4946175;28;20210;-65
2022/05/04 13:25:47;;;;;;;3.28;3.17;;;;;;;;;;4964521;28;20214;-62
2022/05/04 13:28:14;;;;;;;4.05;3.80;;;;;;;;;;4939571;28;20234;-63
2022/05/04 13:30:42;;;;;;;4.20;3.80;;;;;;;;;;4948182;28;20215;-63
2022/05/04 13:33:10;;;;;;;3.75;3.55;;;;;;;;;;4963778;28;20241;-62
2022/05/04 13:35:37;;;;;;;3.95;3.67;;;;;;;;;;4957011;28;20245;-62
2022/05/04 13:38:04;;;;;;;4.40;4.20;;;;;;;;;;4946329;28;20226;-62
2022/05/04 13:40:33;;;;;;;4.25;3.90;;;;;;;;;;4961375;28;20215;-63
2022/05/04 13:43:00;;;;;;;4.18;3.88;;;;;;;;;;4955607;28;20226;-63
2022/05/04 13:45:27;;;;;;;4.63;4.20;;;;;;;;;;4947819;28;20231;-63
2022/05/04 13:47:57;;;;;;;3.42;3.22;;;;;;;;;;4960102;28;20233;-64
2022/05/04 13:53:15;;;;;;;3.83;3.15;;;;;;;;;;4946942;29;20305;-63
2022/05/04 13:55:44;;;;;;;2.90;2.80;;;;;;;;;;4947151;28;20224;-64
2022/05/04 13:58:11;;;;;;;2.45;2.45;;;;;;;;;;4948955;28;20215;-64
2022/05/04 14:00:39;;;;;;;2.83;2.65;;;;;;;;;;4936096;28;20216;-64
2022/05/04 14:03:06;;;;;;;2.50;2.40;;;;;;;;;;4956080;28;20219;-65
2022/05/04 14:05:34;;;;;;;2.80;2.70;;;;;;;;;;4947883;28;20702;-66
2022/05/04 14:08:01;;;;;;;2.70;2.50;;;;;;;;;;4953481;28;20235;-64
2022/05/04 14:10:28;;;;;;;3.17;3.08;;;;;;;;;;4945805;29;20647;-65
2022/05/04 14:12:57;;;;;;;3.08;2.97;;;;;;;;;;4946218;29;20593;-64
2022/05/04 14:15:24;;;;;;;3.25;2.97;;;;;;;;;;4944976;29;20207;-63
2022/05/04 14:17:51;;;;;;;2.90;2.70;;;;;;;;;;4946076;29;20211;-63
2022/05/04 14:20:19;;;;;;;3.20;3.10;;;;;;;;;;4945537;29;20207;-65
2022/05/04 14:22:46;;;;;;;3.75;3.55;;;;;;;;;;4945898;29;20214;-65
2022/05/04 14:25:13;;;;;;;3.85;3.50;;;;;;;;;;4945400;29;20222;-66
2022/05/04 14:27:40;;;;;;;4.13;3.85;;;;;;;;;;4944554;28;20245;-66
2022/05/04 14:30:09;;;;;;;3.78;3.58;;;;;;;;;;4945586;28;20919;-63
2022/05/04 14:32:36;;;;;;;3.67;3.47;;;;;;;;;;4945167;28;20323;-65
2022/05/04 14:35:04;;;;;;;4.82;3.70;;;;;;;;;;4946138;28;20207;-64
2022/05/04 14:37:31;;;;;;;3.83;3.58;;;;;;;;;;4944823;29;20207;-66
2022/05/04 14:39:58;;;;;;;3.25;3.00;;;;;;;;;;4945252;29;20207;-65
2022/05/04 14:42:25;;;;;;;3.60;3.03;;;;;;;;;;4945197;29;20214;-66
2022/05/04 14:44:52;;;;;;;2.80;2.70;;;;;;;;;;4944085;29;20211;-66
2022/05/04 14:47:21;;;;;;;3.95;3.53;;;;;;;;;;4940865;29;20211;-64
2022/05/04 14:49:48;;;;;;;3.53;3.33;;;;;;;;;;4943818;29;20857;-63
2022/05/04 14:52:15;;;;;;;3.05;2.85;;;;;;;;;;4942873;28;20203;-64
2022/05/04 14:54:42;;;;;;;3.45;3.22;;;;;;;;;;4942902;29;20308;-65
2022/05/04 14:57:09;;;;;;;3.17;3.00;;;;;;;;;;4945362;29;20211;-65
2022/05/04 14:59:37;;;;;;;3.45;3.25;;;;;;;;;;4945060;28;20211;-65
2022/05/04 15:02:04;;;;;;;3.60;3.40;;;;;;;;;;4944664;28;20325;-65
2022/05/04 15:07:18;;;;;;;4.55;3.28;;;;;;;;;;4946332;28;20261;-64
2022/05/04 15:09:45;;;;;;;3.83;3.50;;;;;;;;;;4944502;29;20243;-64
2022/05/04 15:12:12;;;;;;;3.95;3.75;;;;;;;;;;4936938;29;20223;-64
2022/05/04 15:14:43;;;;;;;3.88;3.45;;;;;;;;;;4939301;29;20210;-69
2022/05/04 15:17:10;;;;;;;3.00;2.90;;;;;;;;;;4932894;29;20218;-63
2022/05/04 15:19:38;;;;;;;2.75;2.65;;;;;;;;;;4943909;29;20206;-63
2022/05/04 15:22:06;;;;;;;3.63;3.33;;;;;;;;;;4945467;29;20207;-63
2022/05/04 15:24:33;;;;;;;3.22;3.03;;;;;;;;;;4945249;28;20213;-62
2022/05/04 15:27:00;;;;;;;3.38;3.17;;;;;;;;;;4941780;28;20219;-63
2022/05/04 15:29:27;;;;;;;3.00;2.83;;;;;;;;;;4944622;29;20705;-62